createdAt,value
2018-12-14T00:01:18.020Z,100652.69
2018-12-14T00:03:47.352Z,100655.56
2018-12-14T00:06:16.829Z,100654.06
2018-12-14T00:08:46.220Z,100655.84
2018-12-14T00:11:15.593Z,100656.50
2018-12-14T00:13:44.858Z,100657.80
2018-12-14T00:16:14.295Z,100663.45
2018-12-14T00:18:43.570Z,100659.20
2018-12-14T00:21:13.021Z,100660.55
2018-12-14T00:23:42.253Z,100658.07
2018-12-14T00:26:11.560Z,100663.20
2018-12-14T00:28:40.752Z,100656.76
2018-12-14T00:31:10.028Z,100660.41
2018-12-14T00:33:39.343Z,100665.69
2018-12-14T00:36:08.714Z,100665.41
2018-12-14T00:38:38.387Z,100667.00
2018-12-14T00:41:07.664Z,100665.69
2018-12-14T00:43:36.931Z,100669.09
2018-12-14T00:46:06.250Z,100668.95
2018-12-14T00:48:35.637Z,100672.36
2018-12-14T00:51:05.012Z,100678.19
2018-12-14T00:53:34.117Z,100672.43
2018-12-14T00:56:03.600Z,100674.27
2018-12-14T00:58:32.806Z,100673.66
2018-12-14T01:01:01.955Z,100674.73
2018-12-14T01:03:31.255Z,100672.11
2018-12-14T01:06:00.373Z,100671.58
2018-12-14T01:08:29.944Z,100670.41
2018-12-14T01:10:59.043Z,100671.40
2018-12-14T01:13:28.231Z,100676.94
2018-12-14T01:15:57.587Z,100682.05
2018-12-14T01:18:26.923Z,100683.61
2018-12-14T01:20:56.041Z,100682.86
2018-12-14T01:23:25.360Z,100685.39
2018-12-14T01:25:54.527Z,100681.42
2018-12-14T01:28:25.017Z,100682.43
2018-12-14T01:30:54.391Z,100688.14
2018-12-14T01:33:23.666Z,100690.18
2018-12-14T01:35:52.860Z,100697.05
2018-12-14T01:38:22.247Z,100687.22
2018-12-14T01:40:51.427Z,100689.67
2018-12-14T01:43:20.564Z,100683.89
2018-12-14T01:45:49.954Z,100683.22
2018-12-14T01:48:19.425Z,100684.03
2018-12-14T01:50:48.559Z,100680.67
2018-12-14T01:53:18.002Z,100679.42
2018-12-14T01:55:47.256Z,100678.89
2018-12-14T01:58:16.511Z,100670.79
2018-12-14T02:00:45.893Z,100671.09
2018-12-14T02:03:15.188Z,100679.17
2018-12-14T02:05:44.565Z,100662.51
2018-12-14T02:08:13.911Z,100662.29
2018-12-14T02:10:43.094Z,100662.53
2018-12-14T02:13:12.397Z,100664.73
2018-12-14T02:15:41.562Z,100660.83
2018-12-14T02:18:11.139Z,100654.70
2018-12-14T02:20:40.127Z,100656.63
2018-12-14T02:23:09.563Z,100657.25
2018-12-14T02:25:38.730Z,100664.98
2018-12-14T02:28:07.991Z,100655.73
2018-12-14T02:30:44.102Z,100664.97
2018-12-14T02:33:13.390Z,100665.31
2018-12-14T02:35:42.725Z,100657.70
2018-12-14T02:38:11.867Z,100659.28
2018-12-14T02:40:41.298Z,100661.39
2018-12-14T02:43:10.556Z,100657.91
2018-12-14T02:45:39.856Z,100655.45
2018-12-14T02:48:09.057Z,100666.03
2018-12-14T02:50:38.325Z,100663.69
2018-12-14T02:53:07.655Z,100664.27
2018-12-14T02:55:36.916Z,100667.31
2018-12-14T02:58:06.408Z,100663.41
2018-12-14T03:00:35.573Z,100665.70
2018-12-14T03:03:04.962Z,100662.09
2018-12-14T03:05:34.284Z,100664.15
2018-12-14T03:08:03.521Z,100656.13
2018-12-14T03:10:32.667Z,100656.04
2018-12-14T03:13:01.923Z,100657.58
2018-12-14T03:15:31.052Z,100657.81
2018-12-14T03:18:00.204Z,100651.45
2018-12-14T03:20:29.632Z,100650.07
2018-12-14T03:22:58.752Z,100656.16
2018-12-14T03:25:28.091Z,100656.50
2018-12-14T03:27:57.325Z,100655.33
2018-12-14T03:30:26.605Z,100658.59
2018-12-14T03:32:56.496Z,100652.53
2018-12-14T03:35:26.036Z,100661.10
2018-12-14T03:37:55.141Z,100666.66
2018-12-14T03:40:24.319Z,100661.34
2018-12-14T03:42:53.634Z,100656.50
2018-12-14T03:45:22.880Z,100648.30
2018-12-14T03:47:52.032Z,100646.27
2018-12-14T03:50:21.464Z,100645.45
2018-12-14T03:52:50.840Z,100647.75
2018-12-14T03:55:20.411Z,100638.23
2018-12-14T03:57:49.644Z,100641.61
2018-12-14T04:00:19.105Z,100647.78
2018-12-14T04:02:48.993Z,100648.62
2018-12-14T04:05:18.516Z,100644.84
2018-12-14T04:07:47.736Z,100641.64
2018-12-14T04:10:16.999Z,100641.34
2018-12-14T04:12:46.711Z,100645.93
2018-12-14T04:15:16.188Z,100640.80
2018-12-14T04:17:45.405Z,100643.92
2018-12-14T04:20:14.644Z,100647.37
2018-12-14T04:22:44.227Z,100647.55
2018-12-14T04:25:13.580Z,100646.68
2018-12-14T04:27:42.843Z,100645.05
2018-12-14T04:30:12.082Z,100642.41
2018-12-14T04:32:41.195Z,100643.03
2018-12-14T04:35:10.249Z,100640.16
2018-12-14T04:37:39.844Z,100646.86
2018-12-14T04:40:09.168Z,100645.88
2018-12-14T04:42:38.556Z,100643.34
2018-12-14T04:45:07.906Z,100643.59
2018-12-14T04:47:37.317Z,100643.83
2018-12-14T04:50:06.588Z,100636.17
2018-12-14T04:52:35.827Z,100645.75
2018-12-14T04:55:05.490Z,100643.72
2018-12-14T04:57:34.756Z,100645.48
2018-12-14T05:00:03.983Z,100641.50
2018-12-14T05:02:33.222Z,100648.53
2018-12-14T05:05:02.561Z,100648.76
2018-12-14T05:07:31.760Z,100644.63
2018-12-14T05:10:01.083Z,100653.78
2018-12-14T05:12:30.530Z,100654.96
2018-12-14T05:14:59.696Z,100651.64
2018-12-14T05:17:29.020Z,100652.45
2018-12-14T05:19:58.174Z,100661.13
2018-12-14T05:22:27.331Z,100662.99
2018-12-14T05:24:56.488Z,100662.77
2018-12-14T05:27:25.604Z,100668.92
2018-12-14T05:29:55.179Z,100666.05
2018-12-14T05:32:27.644Z,100664.67
2018-12-14T05:34:56.906Z,100667.61
2018-12-14T05:37:26.211Z,100670.63
2018-12-14T05:39:55.595Z,100668.98
2018-12-14T05:42:24.884Z,100672.86
2018-12-14T05:44:54.150Z,100677.61
2018-12-14T05:47:23.985Z,100678.98
2018-12-14T05:49:53.351Z,100679.80
2018-12-14T05:52:22.581Z,100679.20
2018-12-14T05:54:51.987Z,100680.34
2018-12-14T05:57:21.729Z,100674.91
2018-12-14T05:59:51.212Z,100683.26
2018-12-14T06:02:20.736Z,100682.13
2018-12-14T06:04:50.042Z,100689.00
2018-12-14T06:07:19.093Z,100686.93
2018-12-14T06:09:48.489Z,100683.11
2018-12-14T06:12:17.732Z,100681.02
2018-12-14T06:14:47.139Z,100681.13
2018-12-14T06:17:16.390Z,100682.72
2018-12-14T06:19:45.700Z,100690.78
2018-12-14T06:22:14.968Z,100684.81
2018-12-14T06:24:44.294Z,100686.91
2018-12-14T06:27:13.586Z,100683.11
2018-12-14T06:29:43.148Z,100687.76
2018-12-14T06:32:12.523Z,100691.55
2018-12-14T06:34:42.023Z,100697.74
2018-12-14T06:37:11.477Z,100697.58
2018-12-14T06:39:41.016Z,100699.52
2018-12-14T06:42:10.747Z,100708.61
2018-12-14T06:44:40.087Z,100704.83
2018-12-14T06:47:09.683Z,100713.24
2018-12-14T06:49:39.090Z,100712.41
2018-12-14T06:52:08.565Z,100719.66
2018-12-14T06:54:37.956Z,100713.24
2018-12-14T06:57:07.504Z,100716.89
2018-12-14T06:59:37.076Z,100714.34
2018-12-14T07:02:06.447Z,100713.47
2018-12-14T07:04:35.976Z,100716.80
2018-12-14T07:07:05.141Z,100720.98
2018-12-14T07:09:34.827Z,100721.14
2018-12-14T07:12:04.236Z,100729.44
2018-12-14T07:14:33.556Z,100727.77
2018-12-14T07:17:02.888Z,100737.43
2018-12-14T07:19:32.176Z,100743.07
2018-12-14T07:22:01.528Z,100738.99
2018-12-14T07:24:30.839Z,100746.30
2018-12-14T07:27:00.761Z,100752.75
2018-12-14T07:29:29.940Z,100746.33
2018-12-14T07:31:59.416Z,100750.03
2018-12-14T07:34:28.485Z,100759.56
2018-12-14T07:36:57.840Z,100761.45
2018-12-14T07:39:27.247Z,100763.02
2018-12-14T07:41:56.471Z,100767.20
2018-12-14T07:44:25.891Z,100770.52
2018-12-14T07:46:55.527Z,100770.78
2018-12-14T07:49:25.169Z,100775.50
2018-12-14T07:51:55.108Z,100773.27
2018-12-14T07:54:24.318Z,100776.00
2018-12-14T07:56:53.588Z,100781.61
2018-12-14T07:59:23.095Z,100784.94
2018-12-14T08:01:52.514Z,100774.65
2018-12-14T08:04:21.887Z,100779.17
2018-12-14T08:06:51.191Z,100783.74
2018-12-14T08:09:20.649Z,100785.33
2018-12-14T08:11:50.319Z,100796.16
2018-12-14T08:14:19.705Z,100804.08
2018-12-14T08:16:49.648Z,100805.78
2018-12-14T08:19:19.036Z,100805.03
2018-12-14T08:21:49.044Z,100810.00
2018-12-14T08:24:18.335Z,100818.49
2018-12-14T08:26:48.241Z,100817.64
2018-12-14T08:29:17.763Z,100813.52
2018-12-14T08:31:48.019Z,100815.86
2018-12-14T08:34:18.043Z,100818.83
2018-12-14T08:36:48.350Z,100820.30
2018-12-14T08:39:18.245Z,100828.82
2018-12-14T08:41:47.641Z,100827.89
2018-12-14T08:44:17.160Z,100830.63
2018-12-14T08:46:46.667Z,100828.39
2018-12-14T08:49:16.064Z,100828.03
2018-12-14T08:51:45.347Z,100827.48
2018-12-14T08:54:14.582Z,100832.50
2018-12-14T08:56:44.349Z,100839.11
2018-12-14T08:59:13.821Z,100836.31
2018-12-14T09:01:43.269Z,100831.06
2018-12-14T09:04:14.860Z,100845.22
2018-12-14T09:06:43.685Z,100839.98
2018-12-14T09:09:13.022Z,100847.28
2018-12-14T09:11:42.276Z,100847.58
2018-12-14T09:14:11.740Z,100846.46
2018-12-14T09:16:41.184Z,100852.97
2018-12-14T09:19:10.374Z,100856.31
2018-12-14T09:21:39.635Z,100857.80
2018-12-14T09:24:08.926Z,100861.51
2018-12-14T09:26:38.075Z,100863.27
2018-12-14T09:29:07.944Z,100865.44
2018-12-14T09:31:37.047Z,100861.78
2018-12-14T09:34:06.357Z,100873.16
2018-12-14T09:36:35.520Z,100868.11
2018-12-14T09:39:06.067Z,100870.95
2018-12-14T09:41:35.125Z,100877.54
2018-12-14T09:44:05.712Z,100876.76
2018-12-14T09:46:37.187Z,100882.41
2018-12-14T09:49:06.115Z,100882.39
2018-12-14T09:51:35.491Z,100882.89
2018-12-14T09:54:04.917Z,100881.81
2018-12-14T09:56:34.256Z,100883.84
2018-12-14T09:59:03.587Z,100877.75
2018-12-14T10:01:32.949Z,100880.91
2018-12-14T10:04:02.161Z,100878.30
2018-12-14T10:06:31.476Z,100885.33
2018-12-14T10:09:00.857Z,100878.00
2018-12-14T10:11:30.132Z,100880.81
2018-12-14T10:14:00.944Z,100876.23
2018-12-14T10:16:30.587Z,100880.11
2018-12-14T10:19:00.187Z,100878.37
2018-12-14T10:21:29.539Z,100879.48
2018-12-14T10:23:59.612Z,100881.46
2018-12-14T10:26:28.717Z,100884.67
2018-12-14T10:28:58.793Z,100884.42
2018-12-14T10:31:28.292Z,100878.11
2018-12-14T10:33:57.976Z,100882.17
2018-12-14T10:36:27.080Z,100868.92
2018-12-14T10:38:56.546Z,100871.98
2018-12-14T10:41:25.928Z,100877.25
2018-12-14T10:43:55.444Z,100872.44
2018-12-14T10:46:24.607Z,100871.84
2018-12-14T10:48:53.908Z,100870.09
2018-12-14T10:51:23.153Z,100873.07
2018-12-14T10:53:52.337Z,100866.73
2018-12-14T10:56:21.569Z,100867.78
2018-12-14T10:58:51.162Z,100867.02
2018-12-14T11:01:25.487Z,100863.73
2018-12-14T11:03:55.035Z,100858.46
2018-12-14T11:06:25.423Z,100865.30
2018-12-14T11:08:54.959Z,100862.23
2018-12-14T11:11:24.923Z,100856.53
2018-12-14T11:13:54.218Z,100865.72
2018-12-14T11:16:23.420Z,100863.09
2018-12-14T11:18:52.600Z,100870.11
2018-12-14T11:21:22.075Z,100858.23
2018-12-14T11:23:51.451Z,100851.88
2018-12-14T11:26:20.852Z,100856.33
2018-12-14T11:28:50.128Z,100853.45
2018-12-14T11:31:19.430Z,100845.44
2018-12-14T11:33:48.835Z,100846.03
2018-12-14T11:36:18.228Z,100843.87
2018-12-14T11:38:47.643Z,100854.33
2018-12-14T11:41:18.619Z,100841.24
2018-12-14T11:43:48.056Z,100845.97
2018-12-14T11:46:17.291Z,100845.83
2018-12-14T11:48:46.632Z,100846.09
2018-12-14T11:51:19.696Z,100841.20
2018-12-14T11:53:49.047Z,100846.25
2018-12-14T11:56:18.424Z,100847.44
2018-12-14T11:58:47.793Z,100837.78
2018-12-14T12:01:17.094Z,100848.98
2018-12-14T12:03:46.466Z,100836.78
2018-12-14T12:06:15.691Z,100847.41
2018-12-14T12:08:44.967Z,100848.20
2018-12-14T12:11:14.327Z,100846.23
2018-12-14T12:13:43.616Z,100847.94
2018-12-14T12:16:13.028Z,100848.16
2018-12-14T12:18:42.352Z,100850.56
2018-12-14T12:21:11.622Z,100854.72
2018-12-14T12:23:41.048Z,100845.05
2018-12-14T12:26:10.426Z,100843.63
2018-12-14T12:28:39.820Z,100843.95
2018-12-14T12:31:09.229Z,100843.17
2018-12-14T12:33:38.525Z,100841.11
2018-12-14T12:36:07.950Z,100840.69
2018-12-14T12:38:38.318Z,100850.13
2018-12-14T12:41:07.772Z,100849.34
2018-12-14T12:43:36.907Z,100845.41
2018-12-14T12:46:06.192Z,100849.54
2018-12-14T12:48:35.787Z,100851.64
2018-12-14T12:51:05.128Z,100847.94
2018-12-14T12:53:34.419Z,100848.55
2018-12-14T12:56:03.933Z,100849.53
2018-12-14T12:58:33.243Z,100854.53
2018-12-14T13:01:02.749Z,100846.63
2018-12-14T13:03:32.173Z,100851.81
2018-12-14T13:06:01.503Z,100859.12
2018-12-14T13:08:30.880Z,100850.49
2018-12-14T13:11:00.124Z,100852.92
2018-12-14T13:13:29.332Z,100853.58
2018-12-14T13:15:58.504Z,100856.07
2018-12-14T13:18:27.823Z,100861.71
2018-12-14T13:20:56.922Z,100859.05
2018-12-14T13:23:26.057Z,100865.02
2018-12-14T13:25:55.334Z,100867.91
2018-12-14T13:28:24.612Z,100861.61
2018-12-14T13:30:53.710Z,100863.73
2018-12-14T13:33:22.856Z,100866.90
2018-12-14T13:35:52.469Z,100873.26
2018-12-14T13:38:21.980Z,100874.41
2018-12-14T13:40:51.255Z,100875.91
2018-12-14T13:43:20.578Z,100878.73
2018-12-14T13:45:49.912Z,100884.31
2018-12-14T13:48:19.114Z,100892.64
2018-12-14T13:50:48.320Z,100894.94
2018-12-14T13:53:17.793Z,100891.93
2018-12-14T13:55:47.076Z,100900.25
2018-12-14T13:58:16.424Z,100900.98
2018-12-14T14:00:45.765Z,100899.94
2018-12-14T14:03:15.244Z,100903.68
2018-12-14T14:05:44.605Z,100912.01
2018-12-14T14:08:13.807Z,100915.01
2018-12-14T14:10:43.174Z,100908.78
2018-12-14T14:13:12.349Z,100917.33
2018-12-14T14:15:41.688Z,100920.84
2018-12-14T14:18:10.964Z,100927.82
2018-12-14T14:20:40.159Z,100924.92
2018-12-14T14:23:09.555Z,100935.88
2018-12-14T14:25:39.129Z,100940.02
2018-12-14T14:28:08.271Z,100942.18
2018-12-14T14:30:37.611Z,100942.77
2018-12-14T14:33:06.936Z,100955.48
2018-12-14T14:35:36.282Z,100950.95
2018-12-14T14:38:05.548Z,100952.26
2018-12-14T14:40:34.712Z,100956.20
2018-12-14T14:43:04.069Z,100964.98
2018-12-14T14:45:33.297Z,100961.39
2018-12-14T14:48:02.705Z,100963.94
2018-12-14T14:50:31.864Z,100972.33
2018-12-14T14:53:00.972Z,100976.87
2018-12-14T14:55:30.057Z,100970.25
2018-12-14T14:57:59.279Z,100972.98
2018-12-14T15:00:31.014Z,100967.47
2018-12-14T15:03:00.248Z,100972.20
2018-12-14T15:05:29.405Z,100973.12
2018-12-14T15:07:58.679Z,100976.80
2018-12-14T15:10:27.909Z,100969.14
2018-12-14T15:12:57.103Z,100970.50
2018-12-14T15:15:27.320Z,100965.77
2018-12-14T15:17:56.889Z,100979.70
2018-12-14T15:20:26.235Z,100977.90
2018-12-14T15:22:55.664Z,100984.28
2018-12-14T15:25:25.033Z,100986.97
2018-12-14T15:27:54.372Z,100977.73
2018-12-14T15:30:23.495Z,100977.98
2018-12-14T15:32:52.912Z,100990.90
2018-12-14T15:35:22.285Z,100988.43
2018-12-14T15:37:51.515Z,100989.34
2018-12-14T15:40:20.846Z,100990.05
2018-12-14T15:42:50.188Z,100992.95
2018-12-14T15:45:19.795Z,100995.30
2018-12-14T15:47:49.772Z,101000.14
2018-12-14T15:50:19.263Z,100996.72
2018-12-14T15:52:48.651Z,100997.98
2018-12-14T15:55:18.197Z,101001.92
2018-12-14T15:57:47.580Z,101007.73
2018-12-14T16:00:17.116Z,101008.18
2018-12-14T16:02:49.675Z,101014.89
2018-12-14T16:05:18.973Z,101013.30
2018-12-14T16:07:48.282Z,101016.73
2018-12-14T16:10:17.744Z,101019.97
2018-12-14T16:12:46.974Z,101026.08
2018-12-14T16:15:20.014Z,101026.53
2018-12-14T16:17:47.764Z,101032.30
2018-12-14T16:20:17.206Z,101031.05
2018-12-14T16:22:46.326Z,101033.95
2018-12-14T16:25:15.593Z,101030.86
2018-12-14T16:27:44.978Z,101034.78
2018-12-14T16:30:14.324Z,101030.21
2018-12-14T16:32:43.901Z,101034.16
2018-12-14T16:35:13.128Z,101029.10
2018-12-14T16:37:42.450Z,101031.21
2018-12-14T16:40:11.314Z,101035.06
2018-12-14T16:42:40.893Z,101029.92
2018-12-14T16:45:10.221Z,101035.97
2018-12-14T16:47:39.720Z,101039.63
2018-12-14T16:50:09.195Z,101036.13
2018-12-14T16:52:38.568Z,101030.20
2018-12-14T16:55:08.731Z,101032.70
2018-12-14T16:57:38.076Z,101033.55
2018-12-14T17:00:08.487Z,101031.14
2018-12-14T17:02:37.666Z,101032.95
2018-12-14T17:05:07.353Z,101034.01
2018-12-14T17:07:36.852Z,101034.27
2018-12-14T17:10:06.346Z,101042.06
2018-12-14T17:12:35.517Z,101038.70
2018-12-14T17:15:04.925Z,101039.89
2018-12-14T17:17:34.227Z,101046.73
2018-12-14T17:20:03.435Z,101045.95
2018-12-14T17:22:32.739Z,101045.44
2018-12-14T17:25:02.434Z,101048.85
2018-12-14T17:27:32.103Z,101063.22
2018-12-14T17:30:02.065Z,101069.48
2018-12-14T17:32:31.869Z,101075.15
2018-12-14T17:35:01.266Z,101069.27
2018-12-14T17:37:30.583Z,101073.34
2018-12-14T17:40:00.006Z,101076.02
2018-12-14T17:42:29.563Z,101076.42
2018-12-14T17:44:59.644Z,101078.53
2018-12-14T17:47:29.668Z,101078.14
2018-12-14T17:49:59.122Z,101079.64
2018-12-14T17:52:28.811Z,101082.13
2018-12-14T17:54:58.643Z,101087.77
2018-12-14T17:57:28.112Z,101094.05
2018-12-14T17:59:57.759Z,101101.11
2018-12-14T18:02:27.157Z,101098.83
2018-12-14T18:04:56.403Z,101113.20
2018-12-14T18:07:25.654Z,101115.94
2018-12-14T18:09:54.875Z,101122.88
2018-12-14T18:12:24.380Z,101115.86
2018-12-14T18:14:54.116Z,101106.93
2018-12-14T18:17:23.631Z,101112.31
2018-12-14T18:19:53.655Z,101110.81
2018-12-14T18:22:23.608Z,101118.36
2018-12-14T18:24:53.543Z,101123.75
2018-12-14T18:27:22.926Z,101118.39
2018-12-14T18:29:52.791Z,101121.79
2018-12-14T18:32:22.592Z,101120.45
2018-12-14T18:34:52.167Z,101127.43
2018-12-14T18:37:21.671Z,101130.73
2018-12-14T18:39:51.580Z,101130.27
2018-12-14T18:42:21.391Z,101138.73
2018-12-14T18:44:50.731Z,101135.58
2018-12-14T18:47:20.199Z,101145.23
2018-12-14T18:49:49.607Z,101148.59
2018-12-14T18:52:19.021Z,101148.84
2018-12-14T18:54:48.471Z,101151.36
2018-12-14T18:57:17.724Z,101153.52
2018-12-14T18:59:47.220Z,101155.57
2018-12-14T19:02:17.604Z,101160.88
2018-12-14T19:04:46.769Z,101166.33
2018-12-14T19:07:17.045Z,101171.81
2018-12-14T19:09:46.807Z,101173.76
2018-12-14T19:12:16.221Z,101179.94
2018-12-14T19:14:45.496Z,101176.67
2018-12-14T19:17:14.889Z,101178.52
2018-12-14T19:19:44.253Z,101180.47
2018-12-14T19:22:13.419Z,101182.59
2018-12-14T19:24:42.674Z,101180.45
2018-12-14T19:27:11.989Z,101180.22
2018-12-14T19:29:41.683Z,101173.52
2018-12-14T19:32:11.454Z,101186.05
2018-12-14T19:34:41.328Z,101181.63
2018-12-14T19:37:10.914Z,101191.03
2018-12-14T19:39:40.221Z,101182.08
2018-12-14T19:42:09.694Z,101184.53
2018-12-14T19:44:39.244Z,101182.80
2018-12-14T19:47:08.821Z,101185.77
2018-12-14T19:49:38.419Z,101194.41
2018-12-14T19:52:08.009Z,101188.56
2018-12-14T19:54:37.308Z,101188.40
2018-12-14T19:57:06.583Z,101197.24
2018-12-14T19:59:35.840Z,101195.08
2018-12-14T20:02:05.138Z,101193.14
2018-12-14T20:04:34.604Z,101194.84
2018-12-14T20:07:03.856Z,101189.42
2018-12-14T20:09:33.332Z,101190.16
2018-12-14T20:12:02.799Z,101189.89
2018-12-14T20:14:32.012Z,101184.06
2018-12-14T20:17:01.357Z,101190.37
2018-12-14T20:19:30.649Z,101188.27
2018-12-14T20:21:59.896Z,101194.94
2018-12-14T20:24:29.432Z,101184.72
2018-12-14T20:26:59.036Z,101185.67
2018-12-14T20:29:28.185Z,101192.05
2018-12-14T20:31:57.784Z,101190.73
2018-12-14T20:34:27.252Z,101197.37
2018-12-14T20:36:56.531Z,101199.30
2018-12-14T20:39:25.980Z,101202.66
2018-12-14T20:41:55.188Z,101202.41
2018-12-14T20:44:26.531Z,101204.16
2018-12-14T20:46:55.748Z,101211.31
2018-12-14T20:49:25.179Z,101210.77
2018-12-14T20:51:54.300Z,101197.02
2018-12-14T20:54:23.931Z,101199.48
2018-12-14T20:56:53.152Z,101198.92
2018-12-14T20:59:22.378Z,101200.30
2018-12-14T21:01:51.564Z,101196.84
2018-12-14T21:04:20.869Z,101188.77
2018-12-14T21:06:50.209Z,101187.68
2018-12-14T21:09:19.434Z,101189.16
2018-12-14T21:11:48.816Z,101191.28
2018-12-14T21:14:18.347Z,101188.39
2018-12-14T21:16:47.969Z,101182.36
2018-12-14T21:19:17.192Z,101179.30
2018-12-14T21:21:46.432Z,101180.21
2018-12-14T21:24:15.641Z,101183.23
2018-12-14T21:26:44.896Z,101179.36
2018-12-14T21:29:16.105Z,101176.53
2018-12-14T21:31:45.837Z,101173.61
2018-12-14T21:34:15.412Z,101170.75
2018-12-14T21:36:44.786Z,101170.52
2018-12-14T21:39:14.256Z,101165.55
2018-12-14T21:41:43.477Z,101170.52
2018-12-14T21:44:12.824Z,101171.12
2018-12-14T21:46:42.233Z,101168.28
2018-12-14T21:49:11.256Z,101161.58
2018-12-14T21:51:40.598Z,101172.66
2018-12-14T21:54:10.029Z,101171.77
2018-12-14T21:56:39.334Z,101178.47
2018-12-14T21:59:08.517Z,101177.94
2018-12-14T22:01:37.967Z,101173.66
2018-12-14T22:04:07.298Z,101177.15
2018-12-14T22:06:36.568Z,101167.09
2018-12-14T22:09:09.568Z,101172.59
2018-12-14T22:11:38.860Z,101172.75
2018-12-14T22:14:08.025Z,101170.05
2018-12-14T22:16:39.365Z,101171.47
2018-12-14T22:19:08.813Z,101177.06
2018-12-14T22:21:38.160Z,101172.66
2018-12-14T22:24:07.312Z,101169.80
2018-12-14T22:26:36.656Z,101171.92
2018-12-14T22:29:05.752Z,101167.86
2018-12-14T22:31:35.239Z,101168.44
2018-12-14T22:34:04.548Z,101172.00
2018-12-14T22:36:33.784Z,101173.63
2018-12-14T22:39:04.140Z,101173.22
2018-12-14T22:41:33.539Z,101171.91
2018-12-14T22:44:02.685Z,101176.33
2018-12-14T22:46:32.131Z,101176.99
2018-12-14T22:49:01.791Z,101166.96
2018-12-14T22:51:30.937Z,101161.33
2018-12-14T22:54:00.236Z,101164.57
2018-12-14T22:56:29.428Z,101160.72
2018-12-14T22:58:58.759Z,101164.14
2018-12-14T23:01:28.139Z,101155.19
2018-12-14T23:03:57.295Z,101155.80
2018-12-14T23:06:26.607Z,101155.22
2018-12-14T23:08:55.939Z,101153.79
2018-12-14T23:11:25.202Z,101149.75
2018-12-14T23:13:54.342Z,101156.59
2018-12-14T23:16:23.688Z,101161.06
2018-12-14T23:18:52.896Z,101165.97
2018-12-14T23:21:22.154Z,101162.88
2018-12-14T23:23:51.603Z,101166.45
2018-12-14T23:26:20.851Z,101166.90
2018-12-14T23:28:50.405Z,101176.88
2018-12-14T23:31:19.940Z,101177.51
2018-12-14T23:33:49.360Z,101172.17
2018-12-14T23:36:18.617Z,101172.68
2018-12-14T23:38:48.228Z,101174.50
2018-12-14T23:41:17.382Z,101171.19
2018-12-14T23:43:46.744Z,101175.82
2018-12-14T23:46:16.199Z,101172.83
2018-12-14T23:48:45.527Z,101172.78
2018-12-14T23:51:15.138Z,101173.98
2018-12-14T23:53:45.220Z,101174.71
2018-12-14T23:56:14.297Z,101176.37
2018-12-14T23:58:44.220Z,101172.48
